Time;durP1;ratioP1;P1;durP2;ratioP2;P2;SDS_P1;SDS_P2;PMS_P1;PMS_P2;Temp;Humidity;BMP_temperature;BMP_pressure;BME280_temperature;BME280_humidity;BME280_pressure;Samples;Min_cycle;Max_cycle;Signal;HPM_P1;HPM_P2
2021/10/24 00:00:11;;;;;;;9.90;6.38;;;5.90;71.30;;;;;;5058235;28;20020;-67
2021/10/24 00:02:37;;;;;;;9.05;6.38;;;5.90;71.40;;;;;;5057356;28;20099;-67
2021/10/24 00:05:04;;;;;;;9.18;6.55;;;5.90;71.50;;;;;;5054762;28;20032;-67
2021/10/24 00:07:30;;;;;;;11.02;7.05;;;5.90;71.50;;;;;;5056885;28;20513;-67
2021/10/24 00:09:56;;;;;;;9.70;6.25;;;5.90;71.50;;;;;;5055534;28;20107;-67
2021/10/24 00:12:22;;;;;;;9.18;6.32;;;5.90;71.50;;;;;;5057446;28;20036;-66
2021/10/24 00:14:47;;;;;;;11.88;6.95;;;5.90;71.50;;;;;;5055391;28;20521;-67
2021/10/24 00:17:13;;;;;;;13.27;6.82;;;5.90;71.50;;;;;;5056405;28;20064;-67
2021/10/24 00:19:39;;;;;;;8.85;6.20;;;5.90;71.50;;;;;;5055646;28;20036;-67
2021/10/24 00:22:04;;;;;;;8.15;5.78;;;5.90;71.50;;;;;;5056934;28;20029;-67
2021/10/24 00:24:31;;;;;;;10.35;6.70;;;5.90;71.50;;;;;;5054215;28;20068;-66
2021/10/24 00:26:56;;;;;;;9.15;6.40;;;5.90;71.50;;;;;;5055458;28;20033;-67
2021/10/24 00:29:22;;;;;;;11.82;6.88;;;5.90;71.40;;;;;;5055542;28;20037;-67
2021/10/24 00:31:48;;;;;;;9.23;6.82;;;5.90;71.50;;;;;;5055285;28;20091;-67
2021/10/24 00:34:14;;;;;;;12.07;6.57;;;5.80;71.50;;;;;;5054226;28;20043;-67
2021/10/24 00:36:40;;;;;;;11.80;7.45;;;5.80;71.60;;;;;;5054677;28;20518;-67
2021/10/24 00:39:06;;;;;;;10.48;6.55;;;5.80;71.70;;;;;;5055799;28;20652;-67
2021/10/24 00:41:32;;;;;;;9.80;6.32;;;5.80;71.60;;;;;;5056325;28;20052;-67
2021/10/24 00:43:59;;;;;;;13.20;6.53;;;5.80;71.70;;;;;;5055538;28;20037;-67
2021/10/24 00:46:25;;;;;;;10.80;6.00;;;5.80;71.60;;;;;;5055976;28;20099;-67
2021/10/24 00:48:51;;;;;;;8.18;6.47;;;5.70;71.50;;;;;;5055259;28;20510;-66
2021/10/24 00:51:18;;;;;;;10.13;6.53;;;5.70;71.70;;;;;;5060220;28;20426;-67
2021/10/24 00:53:44;;;;;;;12.02;6.72;;;5.80;71.80;;;;;;5058239;28;20032;-65
2021/10/24 00:56:11;;;;;;;11.52;6.57;;;5.70;71.80;;;;;;5055360;28;20036;-67
2021/10/24 00:58:38;;;;;;;8.63;6.53;;;5.70;71.90;;;;;;5057412;28;20400;-67
2021/10/24 01:01:03;;;;;;;11.88;5.97;;;5.70;71.80;;;;;;5058258;28;20021;-67
2021/10/24 01:03:29;;;;;;;11.57;6.60;;;5.70;71.90;;;;;;5061147;28;20037;-67
2021/10/24 01:05:59;;;;;;;11.77;6.32;;;5.70;72.00;;;;;;5057513;28;20633;-67
2021/10/24 01:08:24;;;;;;;10.55;6.30;;;5.70;72.00;;;;;;5055305;28;20048;-67
2021/10/24 01:10:50;;;;;;;12.10;6.75;;;5.70;72.00;;;;;;5053586;28;20028;-67
2021/10/24 01:13:15;;;;;;;9.85;6.35;;;5.70;72.00;;;;;;5056066;28;20095;-67
2021/10/24 01:15:41;;;;;;;8.35;6.32;;;5.70;72.00;;;;;;5056247;28;20039;-67
2021/10/24 01:18:09;;;;;;;9.88;6.30;;;5.70;71.90;;;;;;5055285;28;20400;-67
2021/10/24 01:20:35;;;;;;;10.18;6.47;;;5.70;71.80;;;;;;5056279;28;20053;-67
2021/10/24 01:23:01;;;;;;;10.88;6.55;;;5.70;71.90;;;;;;5055135;28;20463;-67
2021/10/24 01:25:26;;;;;;;11.02;6.50;;;5.70;71.90;;;;;;5052074;28;20033;-67
2021/10/24 01:27:53;;;;;;;10.05;6.50;;;5.70;72.00;;;;;;5054201;28;20490;-65
2021/10/24 01:30:19;;;;;;;8.45;6.13;;;5.60;72.20;;;;;;5054009;28;20028;-66
2021/10/24 01:32:45;;;;;;;11.52;6.20;;;5.60;72.00;;;;;;5055628;28;20500;-67
2021/10/24 01:35:11;;;;;;;11.10;6.15;;;5.50;72.00;;;;;;5055649;28;20033;-67
2021/10/24 01:37:39;;;;;;;9.70;6.22;;;5.50;72.10;;;;;;5059420;28;20623;-67
2021/10/24 01:40:11;;;;;;;12.43;6.40;;;5.50;72.20;;;;;;5057921;28;20569;-67
2021/10/24 01:43:06;;;;;;;9.93;6.15;;;5.40;72.30;;;;;;5057830;28;20032;-67
2021/10/24 01:45:31;;;;;;;9.90;6.18;;;5.40;73.00;;;;;;5047201;28;20037;-67
2021/10/24 01:47:57;;;;;;;8.10;6.13;;;5.40;72.20;;;;;;5055742;28;20032;-66
2021/10/24 01:50:23;;;;;;;9.00;6.10;;;5.40;72.40;;;;;;5055112;28;20056;-67
2021/10/24 01:52:48;;;;;;;9.95;5.95;;;5.30;72.40;;;;;;5054765;28;21781;-67
2021/10/24 01:55:15;;;;;;;9.50;6.32;;;5.40;72.40;;;;;;5054754;28;20044;-67
2021/10/24 01:57:46;;;;;;;9.43;6.15;;;5.40;72.60;;;;;;5055520;28;20035;-67
2021/10/24 02:00:14;;;;;;;9.60;6.28;;;5.40;72.70;;;;;;5056521;28;20029;-66
2021/10/24 02:02:40;;;;;;;8.88;5.70;;;5.40;72.60;;;;;;5056368;28;20111;-67
2021/10/24 02:05:07;;;;;;;7.97;5.35;;;5.40;72.70;;;;;;5055131;28;20567;-67
2021/10/24 02:07:32;;;;;;;10.07;6.00;;;5.40;72.60;;;;;;5055282;28;20025;-67
2021/10/24 02:09:58;;;;;;;10.20;6.22;;;5.40;72.60;;;;;;5056016;28;20031;-67
2021/10/24 02:12:24;;;;;;;9.82;5.93;;;5.40;72.70;;;;;;5054565;28;20051;-67
2021/10/24 02:14:50;;;;;;;9.95;6.38;;;5.40;72.60;;;;;;5054412;28;20033;-67
2021/10/24 02:17:16;;;;;;;10.88;5.93;;;5.40;72.60;;;;;;5057236;28;20075;-66
2021/10/24 02:19:41;;;;;;;10.40;5.95;;;5.50;72.80;;;;;;5056305;28;20512;-67
2021/10/24 02:22:07;;;;;;;7.20;5.60;;;5.50;72.70;;;;;;5055923;28;20066;-67
2021/10/24 02:24:33;;;;;;;7.82;5.70;;;5.50;73.60;;;;;;5051644;28;20505;-67
2021/10/24 02:26:58;;;;;;;10.10;6.10;;;5.50;72.60;;;;;;5052541;28;20170;-67
2021/10/24 02:29:24;;;;;;;12.05;5.57;;;5.50;72.50;;;;;;5056374;28;20033;-67
2021/10/24 02:31:49;;;;;;;8.82;5.50;;;5.50;72.50;;;;;;5057535;28;20492;-67
2021/10/24 02:34:15;;;;;;;6.93;5.35;;;5.50;72.40;;;;;;5054854;28;20040;-67
2021/10/24 02:36:41;;;;;;;12.55;5.85;;;5.50;72.30;;;;;;5054740;28;20497;-67
2021/10/24 02:39:06;;;;;;;9.63;5.70;;;5.50;72.40;;;;;;5056128;28;20035;-66
2021/10/24 02:41:32;;;;;;;9.32;5.22;;;5.50;72.40;;;;;;5054546;28;20476;-67
2021/10/24 02:43:58;;;;;;;6.45;5.35;;;5.40;72.30;;;;;;5055473;28;20076;-67
2021/10/24 02:46:23;;;;;;;8.35;5.65;;;5.40;72.40;;;;;;5055072;28;20435;-66
2021/10/24 02:48:49;;;;;;;10.00;5.57;;;5.40;72.40;;;;;;5056115;28;20036;-66
2021/10/24 02:51:14;;;;;;;10.32;5.68;;;5.40;72.30;;;;;;5054393;28;20043;-67
2021/10/24 02:53:40;;;;;;;8.43;5.32;;;5.40;72.40;;;;;;5057279;28;20432;-67
2021/10/24 02:56:06;;;;;;;7.75;5.50;;;5.40;72.40;;;;;;5055917;28;20029;-67
2021/10/24 02:58:32;;;;;;;8.75;5.45;;;5.40;72.40;;;;;;5057343;28;20442;-67
2021/10/24 03:00:57;;;;;;;7.65;5.50;;;5.40;72.40;;;;;;5054517;28;20029;-66
2021/10/24 03:03:24;;;;;;;8.18;5.95;;;5.40;72.40;;;;;;5056094;28;20470;-68
2021/10/24 03:05:50;;;;;;;10.52;6.28;;;5.40;72.40;;;;;;5050723;28;20522;-67
2021/10/24 03:08:15;;;;;;;7.35;5.57;;;5.40;72.30;;;;;;5055049;28;20032;-67
2021/10/24 03:10:41;;;;;;;6.07;4.88;;;5.40;72.20;;;;;;5051670;28;20050;-67
2021/10/24 03:13:07;;;;;;;9.98;6.07;;;5.40;72.20;;;;;;5056130;28;20056;-67
2021/10/24 03:15:33;;;;;;;8.13;5.40;;;5.40;72.20;;;;;;5053684;28;20565;-67
2021/10/24 03:17:59;;;;;;;9.50;5.68;;;5.50;72.00;;;;;;5055845;28;20029;-67
2021/10/24 03:20:24;;;;;;;7.65;5.32;;;5.40;72.00;;;;;;5052367;28;20039;-65
2021/10/24 03:22:50;;;;;;;9.02;5.43;;;5.40;72.00;;;;;;5054143;28;20029;-67
2021/10/24 03:25:16;;;;;;;8.57;5.50;;;5.40;72.00;;;;;;5052310;28;20037;-67
2021/10/24 03:27:41;;;;;;;10.07;5.68;;;5.40;71.90;;;;;;5051897;28;20431;-67
2021/10/24 03:30:07;;;;;;;9.73;5.35;;;5.30;71.70;;;;;;5053734;28;20056;-67
2021/10/24 03:32:33;;;;;;;9.98;5.18;;;5.30;71.70;;;;;;5055466;28;20032;-67
2021/10/24 03:34:59;;;;;;;8.93;5.50;;;5.30;71.80;;;;;;5052397;28;20087;-67
2021/10/24 03:37:24;;;;;;;9.68;5.57;;;5.30;71.80;;;;;;5053246;28;20145;-67
2021/10/24 03:39:51;;;;;;;10.88;5.97;;;5.30;71.80;;;;;;5053847;28;20032;-67
2021/10/24 03:42:17;;;;;;;7.65;5.25;;;5.30;71.90;;;;;;5054587;28;20068;-67
2021/10/24 03:44:42;;;;;;;7.75;5.13;;;5.20;71.90;;;;;;5052430;28;20111;-67
2021/10/24 03:47:08;;;;;;;11.13;5.90;;;5.20;71.90;;;;;;5054382;28;20036;-66
2021/10/24 03:49:33;;;;;;;10.10;6.00;;;5.20;72.00;;;;;;5053267;28;20127;-68
2021/10/24 03:51:59;;;;;;;9.55;5.72;;;5.20;71.90;;;;;;5053089;28;20044;-67
2021/10/24 03:54:26;;;;;;;6.80;5.07;;;5.20;72.00;;;;;;5051780;28;20043;-66
2021/10/24 03:56:51;;;;;;;10.07;5.60;;;5.20;72.00;;;;;;5055561;28;20107;-67
2021/10/24 03:59:17;;;;;;;11.23;5.60;;;5.20;72.10;;;;;;5053237;28;20029;-67
2021/10/24 04:01:43;;;;;;;8.48;5.25;;;5.20;72.10;;;;;;5053044;28;20044;-67
2021/10/24 04:04:08;;;;;;;8.45;5.45;;;5.20;72.20;;;;;;5051779;28;20086;-67
2021/10/24 04:06:34;;;;;;;10.32;5.18;;;5.10;72.20;;;;;;5052863;28;20143;-67
2021/10/24 04:09:00;;;;;;;8.05;5.78;;;5.10;72.20;;;;;;5054527;28;20503;-67
2021/10/24 04:11:25;;;;;;;8.30;5.25;;;5.10;72.10;;;;;;5054387;28;20041;-66
2021/10/24 04:13:51;;;;;;;9.65;5.47;;;5.10;72.00;;;;;;5055159;28;20625;-67
2021/10/24 04:16:17;;;;;;;8.77;5.50;;;5.10;72.20;;;;;;5056144;28;20052;-67
2021/10/24 04:18:42;;;;;;;8.32;5.18;;;5.10;72.20;;;;;;5055025;28;20036;-67
2021/10/24 04:21:08;;;;;;;9.82;5.32;;;5.10;72.20;;;;;;5054005;28;20033;-67
2021/10/24 04:23:34;;;;;;;8.63;5.00;;;5.10;72.40;;;;;;5053508;28;20115;-67
2021/10/24 04:25:59;;;;;;;12.48;5.38;;;5.00;72.50;;;;;;5055819;28;20603;-67
2021/10/24 04:28:25;;;;;;;7.28;4.88;;;5.00;72.60;;;;;;5058511;28;20040;-66
2021/10/24 04:30:51;;;;;;;12.05;5.47;;;5.10;72.60;;;;;;5058653;28;20039;-67
2021/10/24 04:33:16;;;;;;;6.80;5.00;;;5.00;72.60;;;;;;5058417;28;20029;-66
2021/10/24 04:35:42;;;;;;;8.90;5.60;;;5.00;72.60;;;;;;5056464;28;20029;-66
2021/10/24 04:38:08;;;;;;;8.25;4.90;;;5.00;72.50;;;;;;5059025;28;20021;-66
2021/10/24 04:40:33;;;;;;;8.75;5.00;;;5.00;72.40;;;;;;5058953;28;20530;-67
2021/10/24 04:42:59;;;;;;;8.40;5.20;;;5.00;72.40;;;;;;5055710;28;20025;-67
2021/10/24 04:45:24;;;;;;;7.80;5.20;;;5.00;72.30;;;;;;5057277;28;20151;-67
2021/10/24 04:47:50;;;;;;;7.00;5.03;;;5.00;72.30;;;;;;5057853;28;20037;-67
2021/10/24 04:50:16;;;;;;;8.38;5.10;;;5.00;72.20;;;;;;5055998;28;20048;-67
2021/10/24 04:52:41;;;;;;;8.48;4.88;;;5.00;72.20;;;;;;5059809;28;20083;-67
2021/10/24 04:55:07;;;;;;;8.73;5.60;;;5.00;72.30;;;;;;5057201;28;20444;-67
2021/10/24 04:57:34;;;;;;;7.45;5.30;;;5.00;72.20;;;;;;5058326;28;20874;-67
2021/10/24 05:00:00;;;;;;;8.90;5.05;;;5.00;72.20;;;;;;5056053;28;20032;-66
2021/10/24 05:02:25;;;;;;;8.48;5.40;;;5.00;72.30;;;;;;5056432;28;20060;-67
2021/10/24 05:04:51;;;;;;;10.38;4.97;;;5.00;72.30;;;;;;5056020;28;20033;-67
2021/10/24 05:07:17;;;;;;;7.05;4.95;;;5.00;72.20;;;;;;5058757;28;20132;-66
2021/10/24 05:09:42;;;;;;;11.27;5.50;;;5.00;72.00;;;;;;5056163;28;20071;-67
2021/10/24 05:12:08;;;;;;;9.68;5.80;;;5.00;72.00;;;;;;5053359;28;20443;-67
2021/10/24 05:14:34;;;;;;;8.55;5.18;;;5.00;71.90;;;;;;5056073;28;20047;-67
2021/10/24 05:17:00;;;;;;;9.20;5.55;;;5.00;71.90;;;;;;5058292;28;20060;-67
2021/10/24 05:19:25;;;;;;;9.32;5.93;;;4.90;71.70;;;;;;5057843;28;20491;-67
2021/10/24 05:21:51;;;;;;;9.27;5.75;;;4.90;71.40;;;;;;5056343;28;20031;-67
2021/10/24 05:24:17;;;;;;;9.45;5.75;;;4.90;71.10;;;;;;5057565;28;20033;-67
2021/10/24 05:26:44;;;;;;;8.02;5.80;;;4.80;71.10;;;;;;5058053;28;20185;-67
2021/10/24 05:29:10;;;;;;;8.50;5.68;;;4.80;71.40;;;;;;5056759;28;20033;-66
2021/10/24 05:31:35;;;;;;;8.32;5.20;;;4.70;71.50;;;;;;5055751;28;20125;-67
2021/10/24 05:34:01;;;;;;;8.18;5.65;;;4.70;71.50;;;;;;5056171;28;20053;-67
2021/10/24 05:36:27;;;;;;;9.85;5.25;;;4.70;71.70;;;;;;5055839;28;20389;-67
2021/10/24 05:38:52;;;;;;;6.75;5.32;;;4.70;72.00;;;;;;5057277;28;20036;-67
2021/10/24 05:41:18;;;;;;;6.72;4.93;;;4.70;71.80;;;;;;5055238;28;20094;-67
2021/10/24 05:43:44;;;;;;;9.98;5.35;;;4.70;71.90;;;;;;5057900;28;20036;-67
2021/10/24 05:46:09;;;;;;;6.35;5.03;;;4.70;71.80;;;;;;5052839;28;20048;-66
2021/10/24 05:48:35;;;;;;;9.70;5.72;;;4.70;71.80;;;;;;5057824;28;20029;-66
2021/10/24 05:51:01;;;;;;;7.40;5.28;;;4.70;71.60;;;;;;5056664;28;20052;-67
2021/10/24 05:53:27;;;;;;;10.15;5.53;;;4.70;71.50;;;;;;5058286;28;20024;-67
2021/10/24 05:55:52;;;;;;;8.40;5.93;;;4.70;71.50;;;;;;5055818;28;20511;-67
2021/10/24 05:58:18;;;;;;;9.43;5.80;;;4.70;71.50;;;;;;5059415;28;20037;-67
2021/10/24 06:00:44;;;;;;;7.50;5.82;;;4.70;71.30;;;;;;5056254;28;21221;-67
2021/10/24 06:03:09;;;;;;;7.55;6.00;;;4.70;71.30;;;;;;5052238;28;20033;-67
2021/10/24 06:05:36;;;;;;;12.70;5.65;;;4.70;71.30;;;;;;5053949;28;20033;-67
2021/10/24 06:08:03;;;;;;;9.48;5.53;;;4.70;71.40;;;;;;5054260;28;20135;-67
2021/10/24 06:10:38;;;;;;;7.50;5.00;;;4.70;71.30;;;;;;5051100;28;20098;-67
2021/10/24 06:13:06;;;;;;;8.38;4.93;;;4.70;71.30;;;;;;5057060;28;20070;-67
2021/10/24 06:15:33;;;;;;;8.45;5.85;;;4.70;71.20;;;;;;5057133;28;20029;-67
2021/10/24 06:17:59;;;;;;;10.57;6.28;;;4.70;71.00;;;;;;5058666;28;20033;-67
2021/10/24 06:20:25;;;;;;;10.85;6.60;;;4.70;71.00;;;;;;5057029;28;20055;-67
2021/10/24 06:22:51;;;;;;;8.93;6.53;;;4.70;70.80;;;;;;5059219;28;20035;-67
2021/10/24 06:25:18;;;;;;;9.32;7.03;;;4.70;70.90;;;;;;5057488;28;20416;-67
2021/10/24 06:27:44;;;;;;;10.40;7.75;;;4.70;70.80;;;;;;5057850;28;20033;-67
2021/10/24 06:30:12;;;;;;;10.70;7.28;;;4.70;70.60;;;;;;5064509;28;20044;-67
2021/10/24 06:32:39;;;;;;;10.73;7.53;;;4.60;70.80;;;;;;5057977;28;20032;-67
2021/10/24 06:35:06;;;;;;;14.57;8.93;;;4.60;71.10;;;;;;5058028;28;20032;-66
2021/10/24 06:37:43;;;;;;;12.32;9.40;;;4.60;71.20;;;;;;5049851;28;20025;-66
2021/10/24 06:40:09;;;;;;;13.98;10.57;;;4.60;71.30;;;;;;5052350;28;20109;-67
2021/10/24 06:42:36;;;;;;;12.48;9.88;;;4.60;71.20;;;;;;5051777;28;20036;-65
2021/10/24 06:45:03;;;;;;;9.95;7.88;;;4.60;71.40;;;;;;5048867;28;20508;-67
2021/10/24 06:47:29;;;;;;;14.18;7.93;;;4.60;71.50;;;;;;5051169;28;20093;-67
2021/10/24 06:49:55;;;;;;;13.32;9.20;;;4.60;71.70;;;;;;5056342;28;20575;-67
2021/10/24 06:52:20;;;;;;;13.68;8.18;;;4.60;71.80;;;;;;5052542;28;20094;-67
2021/10/24 06:54:46;;;;;;;13.50;7.80;;;4.60;71.80;;;;;;5056202;28;20082;-67
2021/10/24 06:57:12;;;;;;;19.65;10.00;;;4.60;71.80;;;;;;5055417;28;20082;-67
2021/10/24 06:59:42;;;;;;;16.75;10.45;;;4.60;71.80;;;;;;5056241;28;20103;-68
2021/10/24 07:02:09;;;;;;;16.45;9.90;;;4.60;71.90;;;;;;5056223;28;20523;-68
2021/10/24 07:04:35;;;;;;;15.15;9.57;;;4.50;71.90;;;;;;5054076;28;20121;-67
2021/10/24 07:07:00;;;;;;;15.20;8.70;;;4.50;72.10;;;;;;5055204;28;20036;-68
2021/10/24 07:09:26;;;;;;;13.75;9.07;;;4.50;72.30;;;;;;5055708;28;20396;-68
2021/10/24 07:11:52;;;;;;;14.85;8.85;;;4.50;72.50;;;;;;5052895;28;20037;-68
2021/10/24 07:14:18;;;;;;;13.23;8.93;;;4.50;72.60;;;;;;5057971;28;20508;-67
2021/10/24 07:16:43;;;;;;;11.73;8.48;;;4.50;72.60;;;;;;5054134;28;20116;-67
2021/10/24 07:19:09;;;;;;;11.68;8.38;;;4.50;72.80;;;;;;5052050;28;20029;-68
2021/10/24 07:21:35;;;;;;;13.75;8.60;;;4.60;73.00;;;;;;5055032;28;20087;-67
2021/10/24 07:24:00;;;;;;;13.20;8.50;;;4.60;73.10;;;;;;5055316;28;20158;-68
2021/10/24 07:26:26;;;;;;;11.25;8.45;;;4.60;73.10;;;;;;5053734;28;20037;-68
2021/10/24 07:28:52;;;;;;;11.15;7.95;;;4.60;73.20;;;;;;5056207;28;20059;-67
2021/10/24 07:31:17;;;;;;;12.68;8.43;;;4.60;73.20;;;;;;5055337;28;20127;-67
2021/10/24 07:33:43;;;;;;;11.80;7.13;;;4.60;73.10;;;;;;5054408;28;20035;-67
2021/10/24 07:36:09;;;;;;;15.30;9.15;;;4.60;73.30;;;;;;5055956;28;20116;-67
2021/10/24 07:38:34;;;;;;;20.52;10.32;;;4.60;73.50;;;;;;5056467;27;20037;-67
2021/10/24 07:41:00;;;;;;;11.35;8.05;;;4.60;73.70;;;;;;5054832;28;20387;-67
2021/10/24 07:43:26;;;;;;;11.38;7.72;;;4.60;73.80;;;;;;5052781;28;20045;-67
2021/10/24 07:45:53;;;;;;;11.98;7.28;;;4.70;73.80;;;;;;5056650;28;20075;-67
2021/10/24 07:48:20;;;;;;;11.95;7.60;;;4.70;73.80;;;;;;5055712;28;20035;-66
2021/10/24 07:50:47;;;;;;;10.23;7.35;;;4.70;73.80;;;;;;5055373;28;20492;-66
2021/10/24 07:53:16;;;;;;;10.40;7.80;;;4.70;73.90;;;;;;5055146;28;20137;-66
2021/10/24 07:55:43;;;;;;;11.77;8.18;;;4.70;73.90;;;;;;5056447;28;20036;-67
2021/10/24 07:58:09;;;;;;;11.23;8.02;;;4.70;74.10;;;;;;5056119;28;20043;-65
2021/10/24 08:00:35;;;;;;;12.75;8.07;;;4.70;74.20;;;;;;5054899;28;20495;-66
2021/10/24 08:03:06;;;;;;;13.23;8.50;;;4.70;74.30;;;;;;5058275;28;20143;-66
2021/10/24 08:05:31;;;;;;;11.32;7.40;;;4.80;75.50;;;;;;5050127;28;20106;-66
2021/10/24 08:08:00;;;;;;;12.73;7.30;;;4.80;74.60;;;;;;5055575;28;20602;-65
2021/10/24 08:10:26;;;;;;;13.52;8.55;;;4.80;74.60;;;;;;5054776;28;20039;-66
2021/10/24 08:12:53;;;;;;;13.85;8.43;;;4.90;74.50;;;;;;5061219;28;20044;-66
2021/10/24 08:15:20;;;;;;;11.48;7.15;;;4.90;74.60;;;;;;5052767;28;20044;-65
2021/10/24 08:17:48;;;;;;;13.45;8.70;;;5.00;74.60;;;;;;5049475;28;20052;-65
2021/10/24 08:20:14;;;;;;;14.25;8.70;;;5.00;74.50;;;;;;5050821;28;20086;-66
2021/10/24 08:22:40;;;;;;;11.20;8.00;;;5.00;74.50;;;;;;5054019;28;20041;-66
2021/10/24 08:25:06;;;;;;;12.55;8.57;;;5.00;74.60;;;;;;5053612;28;20053;-66
2021/10/24 08:27:32;;;;;;;9.88;7.40;;;5.00;74.70;;;;;;5055349;28;20517;-65
2021/10/24 08:29:59;;;;;;;10.50;7.57;;;5.10;74.80;;;;;;5056040;28;20029;-66
2021/10/24 08:32:25;;;;;;;11.60;7.95;;;5.10;74.90;;;;;;5052318;28;20599;-66
2021/10/24 08:34:51;;;;;;;10.43;7.53;;;5.10;74.90;;;;;;5054549;28;20067;-66
2021/10/24 08:37:19;;;;;;;11.60;7.40;;;5.20;75.00;;;;;;5056535;28;20044;-66
2021/10/24 08:39:48;;;;;;;11.45;8.30;;;5.20;75.20;;;;;;5055816;28;20535;-65
2021/10/24 08:42:16;;;;;;;13.25;8.70;;;5.30;75.20;;;;;;5055513;28;20516;-66
2021/10/24 08:44:44;;;;;;;14.10;9.10;;;5.30;75.20;;;;;;5055032;28;20550;-66
2021/10/24 08:47:09;;;;;;;14.30;9.50;;;5.40;75.20;;;;;;5053276;28;20563;-66
2021/10/24 08:49:35;;;;;;;15.93;9.60;;;5.40;75.30;;;;;;5053469;28;20112;-66
2021/10/24 08:52:02;;;;;;;14.00;9.32;;;5.50;75.50;;;;;;5055210;28;20081;-66
2021/10/24 08:54:28;;;;;;;13.02;9.32;;;5.60;76.50;;;;;;5053460;28;20044;-67
2021/10/24 08:56:55;;;;;;;15.68;10.48;;;5.60;75.50;;;;;;5055618;28;20025;-66
2021/10/24 08:59:21;;;;;;;14.18;9.82;;;5.60;75.40;;;;;;5053784;28;20033;-66
2021/10/24 09:01:56;;;;;;;14.65;9.38;;;5.70;75.30;;;;;;5054289;28;20098;-66
2021/10/24 09:04:22;;;;;;;13.50;8.70;;;5.70;75.90;;;;;;5054617;28;20033;-66
2021/10/24 09:06:55;;;;;;;14.45;9.50;;;5.80;75.60;;;;;;5050558;28;20275;-66
2021/10/24 09:09:32;;;;;;;15.43;9.38;;;5.80;75.50;;;;;;5051217;28;20029;-66
2021/10/24 09:12:03;;;;;;;17.27;10.57;;;5.80;75.80;;;;;;5055995;28;20043;-65
2021/10/24 09:14:37;;;;;;;14.35;10.40;;;5.90;75.50;;;;;;5052157;28;20400;-66
2021/10/24 09:17:05;;;;;;;18.17;11.38;;;5.90;75.90;;;;;;5057100;28;20028;-66
2021/10/24 09:19:36;;;;;;;14.88;10.48;;;5.90;75.50;;;;;;5053470;28;20031;-66
2021/10/24 09:22:13;;;;;;;13.07;10.30;;;5.90;75.40;;;;;;5054182;28;20407;-67
2021/10/24 09:24:39;;;;;;;13.05;9.95;;;5.90;75.90;;;;;;5057879;28;20067;-66
2021/10/24 09:27:14;;;;;;;15.25;9.63;;;5.90;75.60;;;;;;5061710;28;20057;-67
2021/10/24 09:29:47;;;;;;;13.15;9.75;;;6.00;76.30;;;;;;5061156;28;20037;-66
2021/10/24 09:32:13;;;;;;;16.75;10.75;;;6.00;76.30;;;;;;5061211;28;20033;-67
2021/10/24 09:34:39;;;;;;;17.33;10.82;;;6.00;76.00;;;;;;5058716;28;20029;-66
2021/10/24 09:37:04;;;;;;;14.85;10.45;;;6.10;76.00;;;;;;5059453;28;20515;-67
2021/10/24 09:39:32;;;;;;;18.55;12.05;;;6.20;75.90;;;;;;5060248;28;20136;-67
2021/10/24 09:42:19;;;;;;;14.45;10.10;;;6.20;75.90;;;;;;5058657;28;20131;-66
2021/10/24 09:45:13;;;;;;;16.30;11.23;;;6.30;76.10;;;;;;5056497;28;20496;-66
2021/10/24 09:47:41;;;;;;;13.40;9.75;;;6.30;76.00;;;;;;5058964;28;20244;-67
2021/10/24 09:50:10;;;;;;;12.43;9.43;;;6.40;75.60;;;;;;5058276;28;20049;-67
2021/10/24 09:52:37;;;;;;;13.93;10.77;;;6.40;75.60;;;;;;5058245;28;20032;-67
2021/10/24 09:55:04;;;;;;;12.90;9.35;;;6.40;75.60;;;;;;5057119;28;20087;-67
2021/10/24 09:57:30;;;;;;;10.38;8.45;;;6.50;75.70;;;;;;5058769;28;20056;-66
2021/10/24 09:59:55;;;;;;;11.45;8.88;;;6.50;75.50;;;;;;5058040;28;20053;-67
2021/10/24 10:02:24;;;;;;;11.68;8.85;;;6.60;75.50;;;;;;5058168;28;20555;-67
2021/10/24 10:04:50;;;;;;;11.10;8.82;;;6.50;75.30;;;;;;5057048;28;20040;-67
2021/10/24 10:07:20;;;;;;;11.45;8.70;;;6.60;75.50;;;;;;5057904;28;20086;-67
2021/10/24 10:09:46;;;;;;;10.95;8.40;;;6.60;75.60;;;;;;5055884;28;20032;-67
2021/10/24 10:12:17;;;;;;;10.18;7.82;;;6.60;75.40;;;;;;5055383;28;20041;-67
2021/10/24 10:14:44;;;;;;;17.05;14.35;;;6.60;75.50;;;;;;5057877;28;20032;-66
2021/10/24 10:17:22;;;;;;;11.88;9.43;;;6.60;75.60;;;;;;5058729;28;20021;-67
2021/10/24 10:19:47;;;;;;;12.32;10.13;;;6.60;76.00;;;;;;5058855;28;20033;-66
2021/10/24 10:22:31;;;;;;;10.02;8.38;;;6.70;76.00;;;;;;5058663;28;20029;-66
2021/10/24 10:25:09;;;;;;;10.82;8.30;;;6.70;76.80;;;;;;5058692;28;20033;-67
2021/10/24 10:27:35;;;;;;;10.25;8.13;;;6.80;76.50;;;;;;5059242;28;20029;-67
2021/10/24 10:30:04;;;;;;;10.85;7.68;;;6.90;76.10;;;;;;5059628;27;20033;-67
2021/10/24 10:32:51;;;;;;;9.95;7.90;;;6.90;75.80;;;;;;5059069;28;20041;-66
2021/10/24 10:35:22;;;;;;;9.48;8.20;;;7.00;76.00;;;;;;5059102;28;20033;-67
2021/10/24 10:37:51;;;;;;;9.55;8.15;;;7.00;76.00;;;;;;5058098;28;20036;-66
2021/10/24 10:40:33;;;;;;;10.02;8.02;;;7.00;75.70;;;;;;5057715;28;20455;-67
2021/10/24 10:43:17;;;;;;;9.23;7.70;;;7.10;75.90;;;;;;5058805;28;20661;-66
2021/10/24 10:45:45;;;;;;;10.55;7.32;;;7.20;75.80;;;;;;5058727;28;20025;-66
2021/10/24 10:48:42;;;;;;;8.07;6.95;;;7.10;75.30;;;;;;5059944;28;20155;-67
2021/10/24 10:51:18;;;;;;;8.30;7.40;;;7.10;75.60;;;;;;5058844;28;20024;-67
2021/10/24 10:53:47;;;;;;;10.68;8.02;;;7.20;75.70;;;;;;5058119;28;20116;-66
2021/10/24 10:56:12;;;;;;;12.30;7.88;;;7.20;75.60;;;;;;5060304;28;20032;-66
2021/10/24 10:58:46;;;;;;;12.40;8.90;;;7.20;75.50;;;;;;5056305;28;20702;-67
2021/10/24 11:01:28;;;;;;;9.48;8.30;;;7.30;75.80;;;;;;5057555;28;20473;-67
2021/10/24 11:04:13;;;;;;;9.40;7.40;;;7.40;76.00;;;;;;5058785;28;20025;-66
2021/10/24 11:06:39;;;;;;;9.25;8.13;;;7.40;75.50;;;;;;5055469;28;20036;-67
2021/10/24 11:09:12;;;;;;;8.60;7.03;;;7.50;75.40;;;;;;5057405;28;20040;-67
2021/10/24 11:11:41;;;;;;;9.82;8.15;;;7.50;75.30;;;;;;5057034;28;20043;-67
2021/10/24 11:14:16;;;;;;;9.57;7.60;;;7.60;75.10;;;;;;5056985;28;20025;-67
2021/10/24 11:16:46;;;;;;;10.20;7.95;;;7.60;75.30;;;;;;5055596;28;20405;-67
2021/10/24 11:19:32;;;;;;;9.80;8.10;;;7.60;74.90;;;;;;5055988;28;20033;-67
2021/10/24 11:21:59;;;;;;;9.10;7.72;;;7.70;75.30;;;;;;5057225;28;20032;-67
2021/10/24 11:24:39;;;;;;;9.32;8.30;;;7.70;75.20;;;;;;5056464;28;20561;-67
2021/10/24 11:27:06;;;;;;;9.35;7.85;;;7.80;75.40;;;;;;5057717;28;20043;-67
2021/10/24 11:29:33;;;;;;;10.38;7.97;;;7.90;75.10;;;;;;5056344;28;20568;-67
2021/10/24 11:32:14;;;;;;;10.95;8.13;;;7.90;75.00;;;;;;5057149;28;20065;-66
2021/10/24 11:34:41;;;;;;;10.23;8.05;;;8.00;75.00;;;;;;5053175;28;20068;-67
2021/10/24 11:37:07;;;;;;;10.52;8.15;;;8.00;74.50;;;;;;5056726;28;20089;-67
2021/10/24 11:39:33;;;;;;;9.57;8.23;;;8.00;74.40;;;;;;5056070;28;20029;-67
2021/10/24 11:42:27;;;;;;;13.65;8.85;;;8.00;74.40;;;;;;5056870;28;20036;-67
2021/10/24 11:44:52;;;;;;;9.98;8.75;;;8.00;75.10;;;;;;5056181;28;20039;-67
2021/10/24 11:47:18;;;;;;;13.18;9.10;;;8.00;74.60;;;;;;5057639;28;20155;-67
2021/10/24 11:49:52;;;;;;;13.73;10.00;;;8.10;74.60;;;;;;5055545;28;20040;-66
2021/10/24 11:52:25;;;;;;;11.70;9.02;;;8.10;74.70;;;;;;5055782;28;20036;-67
2021/10/24 11:55:03;;;;;;;;;;;8.10;74.70;;;;;;5058353;28;20083;-67
2021/10/24 12:00:21;;;;;;;12.05;9.70;;;8.20;74.20;;;;;;5035020;28;20034;-67
2021/10/24 12:02:57;;;;;;;11.02;9.45;;;8.20;74.30;;;;;;5055375;28;20031;-67
2021/10/24 12:05:36;;;;;;;12.95;9.57;;;8.30;74.70;;;;;;5054218;28;20456;-67
2021/10/24 12:08:03;;;;;;;11.48;9.50;;;8.30;74.90;;;;;;5054924;28;20037;-67
2021/10/24 12:10:48;;;;;;;12.90;9.40;;;8.40;74.80;;;;;;5055327;28;20167;-66
2021/10/24 12:13:34;;;;;;;11.98;9.90;;;8.40;76.00;;;;;;5057230;28;20036;-68
2021/10/24 12:16:02;;;;;;;12.05;9.02;;;8.50;75.30;;;;;;5056919;28;20064;-67
2021/10/24 12:18:30;;;;;;;10.32;8.93;;;8.60;75.00;;;;;;5056290;28;20033;-67
2021/10/24 12:21:01;;;;;;;11.20;9.15;;;8.60;74.80;;;;;;5056319;28;20186;-67
2021/10/24 12:23:29;;;;;;;10.48;9.38;;;8.70;75.20;;;;;;5056350;28;20036;-67
2021/10/24 12:25:57;;;;;;;10.18;8.73;;;8.80;74.70;;;;;;5058252;28;20048;-67
2021/10/24 12:28:32;;;;;;;11.30;9.27;;;8.90;74.60;;;;;;5055931;28;20043;-68
2021/10/24 12:31:03;;;;;;;11.07;8.90;;;8.90;74.60;;;;;;5056335;28;20040;-67
2021/10/24 12:33:41;;;;;;;12.13;9.10;;;9.00;74.60;;;;;;5053652;28;20062;-67
2021/10/24 12:36:10;;;;;;;11.73;9.10;;;9.10;74.40;;;;;;5056523;28;20064;-67
2021/10/24 12:38:56;;;;;;;10.90;8.77;;;9.10;74.20;;;;;;5054472;28;20462;-67
2021/10/24 12:41:45;;;;;;;10.40;8.82;;;9.20;74.20;;;;;;5054304;28;20059;-67
2021/10/24 12:44:31;;;;;;;12.25;8.70;;;9.30;74.10;;;;;;5057223;28;20576;-67
2021/10/24 12:46:57;;;;;;;9.98;8.50;;;9.40;74.00;;;;;;5058361;28;20060;-68
2021/10/24 12:49:29;;;;;;;11.68;9.25;;;9.40;73.80;;;;;;5059773;28;20083;-67
2021/10/24 12:52:17;;;;;;;11.05;9.27;;;9.50;73.80;;;;;;5058422;28;20033;-67
2021/10/24 12:54:45;;;;;;;12.52;9.25;;;9.60;73.70;;;;;;5058915;28;20048;-66
2021/10/24 12:57:11;;;;;;;11.52;9.18;;;9.60;73.60;;;;;;5060220;28;20037;-67